Pritchardville, South Carolina
Current Conditions -  °F | °C
As of 9:35 PM on Saturday 22 Nov 2014 (Local Time) from KHXD Reporting Station
Clear Clear  
Wind Chill: 57°   Ceiling: Unl
Heat Index: 57°   Visibility: 7mi
Dew Point: 57°   Wind: 6mph
Humidity: 100%   Direction: 10°N
Pressure: 30.28"   Gusts: NA
Location:  32.2133°N, 80.9033°W
Report Text: KHXD 230235Z AUTO 01005KT 7SM CLR 14/14 A3028 RMK AO2 P0000
Loading
Personal Weather Stations






























Interactive Weather Map New forecast layout! Learn more

10-Day Weather Forecast

Advertisements
Track Severe Weather on mobile